Time;durP1;ratioP1;P1;durP2;ratioP2;P2;SDS_P1;SDS_P2;PMS_P1;PMS_P2;Temp;Humidity;BMP_temperature;BMP_pressure;BME280_temperature;BME280_humidity;BME280_pressure;Samples;Min_cycle;Max_cycle;Signal;HPM_P1;HPM_P2
2021/12/02 00:02:06;;;;;;;9.63;4.78;;;;;;;;;;5052062;28;20017;-39
2021/12/02 00:04:33;;;;;;;10.80;4.55;;;;;;;;;;5033848;28;20032;-40
2021/12/02 00:06:59;;;;;;;8.98;4.18;;;;;;;;;;5033543;28;20071;-40
2021/12/02 00:09:24;;;;;;;7.78;3.97;;;;;;;;;;5033443;28;20415;-40
2021/12/02 00:11:49;;;;;;;8.13;3.67;;;;;;;;;;5033655;28;20020;-40
2021/12/02 00:14:22;;;;;;;9.35;4.32;;;;;;;;;;5032535;28;20086;-40
2021/12/02 00:22:09;;;;;;;11.40;3.83;;;;;;;;;;5033349;28;20071;-39
2021/12/02 00:24:35;;;;;;;11.57;3.22;;;;;;;;;;5033605;28;20033;-40
2021/12/02 00:27:03;;;;;;;8.35;4.05;;;;;;;;;;5033409;28;20048;-39
2021/12/02 00:29:29;;;;;;;6.28;3.70;;;;;;;;;;5033372;28;20025;-39
2021/12/02 00:31:54;;;;;;;8.35;3.70;;;;;;;;;;5033297;28;20380;-39
2021/12/02 00:34:22;;;;;;;5.90;3.50;;;;;;;;;;5046303;28;20013;-40
2021/12/02 00:36:47;;;;;;;7.50;3.42;;;;;;;;;;5043231;28;20037;-39
2021/12/02 00:39:17;;;;;;;7.22;3.20;;;;;;;;;;5032013;28;20149;-39
2021/12/02 00:41:42;;;;;;;9.02;3.30;;;;;;;;;;5031844;28;20071;-39
2021/12/02 00:44:08;;;;;;;7.15;4.10;;;;;;;;;;5033060;28;20108;-40
2021/12/02 00:46:35;;;;;;;7.57;3.78;;;;;;;;;;5032928;28;20448;-39
2021/12/02 00:49:04;;;;;;;6.93;3.50;;;;;;;;;;5032890;28;20018;-39
2021/12/02 00:51:29;;;;;;;;;;;;;;;;;;5033529;28;20025;-40
2021/12/02 00:53:55;;;;;;;5.53;3.20;;;;;;;;;;5033368;28;19947;-40
2021/12/02 00:56:21;;;;;;;9.00;3.25;;;;;;;;;;5032657;28;20049;-39
2021/12/02 00:58:48;;;;;;;5.20;3.15;;;;;;;;;;5032712;28;20028;-40
2021/12/02 01:01:17;;;;;;;7.20;3.20;;;;;;;;;;5032633;28;20017;-40
2021/12/02 01:03:43;;;;;;;6.13;2.97;;;;;;;;;;5058666;28;20478;-39
2021/12/02 01:06:08;;;;;;;6.78;3.30;;;;;;;;;;5033664;28;20045;-40
2021/12/02 01:08:34;;;;;;;6.07;3.42;;;;;;;;;;5032723;28;20022;-40
2021/12/02 01:11:00;;;;;;;6.93;3.10;;;;;;;;;;5032585;28;20101;-40
2021/12/02 01:13:26;;;;;;;7.80;2.90;;;;;;;;;;5035429;28;20025;-39
2021/12/02 01:15:51;;;;;;;8.90;3.38;;;;;;;;;;5052896;28;20029;-39
2021/12/02 01:18:16;;;;;;;5.60;3.13;;;;;;;;;;5054852;28;20056;-40
2021/12/02 01:20:42;;;;;;;6.32;2.85;;;;;;;;;;5056981;28;20052;-40
2021/12/02 01:23:09;;;;;;;5.07;2.95;;;;;;;;;;5055304;28;20021;-39
2021/12/02 01:25:34;;;;;;;5.50;2.70;;;;;;;;;;5056591;28;20013;-40
2021/12/02 01:28:00;;;;;;;5.50;2.80;;;;;;;;;;5056511;28;20025;-39
2021/12/02 01:30:29;;;;;;;5.53;2.97;;;;;;;;;;5056553;28;20017;-39
2021/12/02 01:32:58;;;;;;;6.82;4.35;;;;;;;;;;5054784;28;20079;-40
2021/12/02 01:35:24;;;;;;;7.05;2.83;;;;;;;;;;5054138;28;20043;-40
2021/12/02 01:37:50;;;;;;;9.77;3.00;;;;;;;;;;5056438;28;20532;-40
2021/12/02 01:40:16;;;;;;;5.65;2.85;;;;;;;;;;5056569;28;20050;-40
2021/12/02 01:42:45;;;;;;;6.13;2.90;;;;;;;;;;5056190;28;20448;-39
2021/12/02 01:45:13;;;;;;;5.65;2.85;;;;;;;;;;5056181;28;20024;-40
2021/12/02 01:47:42;;;;;;;5.32;3.10;;;;;;;;;;5055933;28;20028;-39
2021/12/02 01:50:10;;;;;;;5.45;2.65;;;;;;;;;;5056416;28;20021;-40
2021/12/02 01:52:38;;;;;;;4.63;3.20;;;;;;;;;;5054928;28;20070;-39
2021/12/02 01:55:08;;;;;;;9.38;2.90;;;;;;;;;;5056106;28;20021;-40
2021/12/02 01:57:34;;;;;;;7.07;3.40;;;;;;;;;;5055803;28;20049;-40
2021/12/02 02:00:19;;;;;;;5.65;3.05;;;;;;;;;;5055923;28;20017;-40
2021/12/02 02:02:44;;;;;;;7.18;3.05;;;;;;;;;;5055483;28;20024;-39
2021/12/02 02:05:13;;;;;;;6.82;3.50;;;;;;;;;;5036116;28;20018;-40
2021/12/02 02:07:47;;;;;;;7.68;3.30;;;;;;;;;;5036071;28;20464;-40
2021/12/02 02:10:13;;;;;;;7.97;2.80;;;;;;;;;;5035753;28;20127;-40
2021/12/02 02:12:38;;;;;;;9.05;2.88;;;;;;;;;;5035558;28;20045;-40
2021/12/02 02:15:03;;;;;;;6.28;3.20;;;;;;;;;;5045470;28;20023;-40
2021/12/02 02:17:39;;;;;;;4.82;3.03;;;;;;;;;;5055768;28;20037;-40
2021/12/02 02:20:07;;;;;;;4.82;2.92;;;;;;;;;;5055751;28;20024;-40
2021/12/02 02:22:33;;;;;;;5.35;3.00;;;;;;;;;;5055730;28;20128;-40
2021/12/02 02:25:00;;;;;;;3.47;2.45;;;;;;;;;;5054686;28;20480;-40
2021/12/02 02:27:25;;;;;;;7.60;3.00;;;;;;;;;;5055221;28;20044;-40
2021/12/02 02:29:50;;;;;;;7.82;3.15;;;;;;;;;;5055460;28;20049;-40
2021/12/02 02:32:16;;;;;;;4.47;2.75;;;;;;;;;;5055821;28;20036;-40
2021/12/02 02:34:41;;;;;;;7.10;2.83;;;;;;;;;;5050429;28;20017;-40
2021/12/02 02:37:07;;;;;;;12.45;4.20;;;;;;;;;;5053868;28;20063;-40
2021/12/02 02:39:34;;;;;;;7.75;3.38;;;;;;;;;;5055137;28;20033;-40
2021/12/02 02:42:02;;;;;;;8.05;3.17;;;;;;;;;;5055280;28;20456;-40
2021/12/02 02:44:28;;;;;;;10.90;3.35;;;;;;;;;;5055386;28;20448;-40
2021/12/02 02:46:54;;;;;;;5.85;3.15;;;;;;;;;;5055023;28;20455;-40
2021/12/02 02:49:19;;;;;;;6.47;3.67;;;;;;;;;;5054906;28;20070;-40
2021/12/02 02:51:45;;;;;;;7.78;3.33;;;;;;;;;;5054971;28;20041;-40
2021/12/02 02:54:12;;;;;;;12.60;3.80;;;;;;;;;;5055056;28;20141;-39
2021/12/02 02:56:46;;;;;;;6.50;3.58;;;;;;;;;;5054641;28;20071;-40
2021/12/02 03:04:33;;;;;;;9.43;5.15;;;;;;;;;;5072512;28;20078;-40
2021/12/02 03:17:07;;;;;;;8.35;3.13;;;;;;;;;;5074387;28;20123;-40
2021/12/02 03:19:32;;;;;;;6.28;2.90;;;;;;;;;;5074252;28;20104;-40
2021/12/02 03:21:57;;;;;;;8.10;3.00;;;;;;;;;;5074663;28;20371;-40
2021/12/02 03:24:23;;;;;;;5.68;3.22;;;;;;;;;;5073210;28;20031;-40
2021/12/02 03:26:48;;;;;;;7.95;3.10;;;;;;;;;;5074427;28;20353;-40
2021/12/02 03:29:14;;;;;;;5.95;2.85;;;;;;;;;;5074351;28;20016;-40
2021/12/02 03:31:39;;;;;;;9.98;3.42;;;;;;;;;;5074236;28;20078;-40
2021/12/02 03:34:07;;;;;;;8.18;3.58;;;;;;;;;;5062866;28;20479;-40
2021/12/02 03:36:32;;;;;;;6.60;2.85;;;;;;;;;;5052813;28;20028;-40
2021/12/02 03:38:57;;;;;;;9.93;3.30;;;;;;;;;;5054011;28;20044;-40
2021/12/02 03:41:24;;;;;;;5.20;3.08;;;;;;;;;;5053073;28;20464;-40
2021/12/02 03:43:50;;;;;;;8.80;3.25;;;;;;;;;;5052802;28;20482;-40
2021/12/02 03:46:17;;;;;;;5.22;2.92;;;;;;;;;;5053976;28;20013;-40
2021/12/02 03:48:42;;;;;;;7.57;3.20;;;;;;;;;;5053865;28;20021;-40
2021/12/02 03:51:09;;;;;;;7.28;3.30;;;;;;;;;;5054100;28;20401;-40
2021/12/02 03:53:35;;;;;;;4.53;2.95;;;;;;;;;;5034090;28;20021;-40
2021/12/02 03:56:01;;;;;;;12.18;3.75;;;;;;;;;;5033636;28;20049;-40
2021/12/02 03:58:27;;;;;;;6.13;3.05;;;;;;;;;;5033988;28;20049;-40
2021/12/02 04:00:52;;;;;;;5.53;3.10;;;;;;;;;;5033587;28;20052;-40
2021/12/02 04:03:17;;;;;;;9.38;3.50;;;;;;;;;;5052917;28;20024;-40
2021/12/02 04:05:43;;;;;;;7.20;2.92;;;;;;;;;;5073324;28;20133;-40
2021/12/02 04:08:11;;;;;;;6.45;3.42;;;;;;;;;;5073767;28;20020;-40
2021/12/02 04:10:36;;;;;;;7.35;3.10;;;;;;;;;;5073501;28;20477;-41
2021/12/02 04:13:20;;;;;;;5.10;2.97;;;;;;;;;;5073510;28;20021;-40
2021/12/02 04:15:50;;;;;;;7.20;2.97;;;;;;;;;;5073184;28;20027;-41
2021/12/02 04:18:16;;;;;;;7.70;3.00;;;;;;;;;;5073285;28;20025;-40
2021/12/02 04:20:41;;;;;;;7.80;3.85;;;;;;;;;;5073313;28;20394;-40
2021/12/02 04:23:06;;;;;;;12.32;5.03;;;;;;;;;;5073360;28;20452;-40
2021/12/02 04:25:32;;;;;;;8.85;3.25;;;;;;;;;;5073068;28;20012;-40
2021/12/02 04:27:57;;;;;;;6.43;2.95;;;;;;;;;;5073196;28;20482;-40
2021/12/02 04:30:24;;;;;;;7.53;3.10;;;;;;;;;;5066254;28;20021;-40
2021/12/02 04:32:49;;;;;;;12.32;3.40;;;;;;;;;;5052178;28;20092;-41
2021/12/02 04:35:14;;;;;;;5.15;2.92;;;;;;;;;;5049160;28;20120;-40
2021/12/02 04:37:40;;;;;;;6.03;2.63;;;;;;;;;;5051875;28;20043;-40
2021/12/02 04:40:06;;;;;;;18.80;4.03;;;;;;;;;;5053194;28;20415;-40
2021/12/02 04:42:31;;;;;;;11.02;3.03;;;;;;;;;;5052972;28;20044;-40
2021/12/02 04:44:56;;;;;;;7.60;3.17;;;;;;;;;;5053061;28;20051;-40
2021/12/02 04:47:22;;;;;;;10.45;3.38;;;;;;;;;;5052366;28;20021;-40
2021/12/02 04:49:47;;;;;;;6.07;3.70;;;;;;;;;;5053043;28;20079;-42
2021/12/02 04:52:13;;;;;;;7.93;3.75;;;;;;;;;;5053193;28;20116;-40
2021/12/02 04:54:38;;;;;;;9.45;3.20;;;;;;;;;;5052679;28;20017;-40
2021/12/02 04:57:04;;;;;;;11.77;3.55;;;;;;;;;;5052749;28;20553;-41
2021/12/02 04:59:30;;;;;;;11.68;4.40;;;;;;;;;;5041669;28;20041;-40
2021/12/02 05:01:55;;;;;;;7.93;3.78;;;;;;;;;;5032636;28;20032;-42
2021/12/02 05:04:21;;;;;;;10.13;3.35;;;;;;;;;;5068184;28;20027;-40
2021/12/02 05:06:46;;;;;;;7.47;4.07;;;;;;;;;;5072719;28;20459;-40
2021/12/02 05:09:11;;;;;;;7.65;3.20;;;;;;;;;;5072735;28;20023;-40
2021/12/02 05:11:38;;;;;;;7.53;3.67;;;;;;;;;;5072630;28;20099;-40
2021/12/02 05:14:04;;;;;;;16.02;7.25;;;;;;;;;;5072692;28;20021;-40
2021/12/02 05:16:29;;;;;;;16.92;6.75;;;;;;;;;;5072406;28;20040;-42
2021/12/02 05:18:54;;;;;;;12.52;4.35;;;;;;;;;;5071178;28;20023;-40
2021/12/02 05:21:19;;;;;;;5.78;3.50;;;;;;;;;;5072517;28;20024;-40
2021/12/02 05:23:45;;;;;;;9.45;4.60;;;;;;;;;;5072423;28;20017;-40
2021/12/02 05:26:10;;;;;;;13.90;6.07;;;;;;;;;;5072535;28;20024;-42
2021/12/02 05:28:36;;;;;;;18.17;8.32;;;;;;;;;;5071229;28;20025;-41
2021/12/02 05:31:01;;;;;;;8.98;4.75;;;;;;;;;;5060207;28;20024;-40
2021/12/02 05:33:26;;;;;;;10.57;3.30;;;;;;;;;;5047217;28;20021;-40
2021/12/02 05:35:51;;;;;;;14.05;5.28;;;;;;;;;;5052757;28;20021;-40
2021/12/02 05:38:17;;;;;;;8.02;4.07;;;;;;;;;;5052408;28;20016;-40
2021/12/02 05:40:42;;;;;;;10.60;3.88;;;;;;;;;;5052292;28;20056;-40
2021/12/02 05:43:07;;;;;;;5.97;3.50;;;;;;;;;;5052376;28;20104;-40
2021/12/02 05:45:33;;;;;;;9.07;3.70;;;;;;;;;;5052660;28;20398;-40
2021/12/02 05:47:58;;;;;;;6.70;3.33;;;;;;;;;;5050774;28;20024;-40
2021/12/02 05:53:07;;;;;;;12.60;4.45;;;;;;;;;;5052401;28;20131;-40
2021/12/02 05:55:33;;;;;;;12.77;4.65;;;;;;;;;;5052198;28;20021;-40
2021/12/02 05:57:59;;;;;;;12.18;4.53;;;;;;;;;;5042055;28;20443;-41
2021/12/02 06:00:24;;;;;;;10.10;3.92;;;;;;;;;;5034681;28;20440;-42
2021/12/02 06:02:50;;;;;;;10.95;5.22;;;;;;;;;;5047398;28;20604;-41
2021/12/02 06:05:21;;;;;;;13.20;4.07;;;;;;;;;;5076077;28;20134;-41
2021/12/02 06:07:50;;;;;;;8.23;4.15;;;;;;;;;;5075909;28;20013;-41
2021/12/02 06:10:16;;;;;;;15.57;5.40;;;;;;;;;;5056077;28;20025;-41
2021/12/02 06:12:41;;;;;;;18.33;4.28;;;;;;;;;;5055613;28;20112;-41
2021/12/02 06:15:07;;;;;;;12.88;4.65;;;;;;;;;;5055781;28;20432;-42
2021/12/02 06:17:33;;;;;;;11.13;4.82;;;;;;;;;;5055385;28;20048;-41
2021/12/02 06:19:58;;;;;;;10.43;4.68;;;;;;;;;;5055678;28;20020;-41
2021/12/02 06:22:23;;;;;;;12.15;4.95;;;;;;;;;;5055585;28;20044;-41
2021/12/02 06:25:05;;;;;;;13.13;7.50;;;;;;;;;;5054206;28;20013;-41
2021/12/02 06:27:31;;;;;;;13.13;5.80;;;;;;;;;;5055266;28;20029;-41
2021/12/02 06:29:56;;;;;;;15.52;6.55;;;;;;;;;;5055054;28;20032;-40
2021/12/02 06:32:21;;;;;;;12.65;5.88;;;;;;;;;;5055249;28;20028;-41
2021/12/02 06:34:46;;;;;;;18.80;4.90;;;;;;;;;;5050216;28;20020;-41
2021/12/02 06:37:12;;;;;;;11.90;5.45;;;;;;;;;;5054710;28;20076;-41
2021/12/02 06:39:37;;;;;;;19.40;4.82;;;;;;;;;;5055122;28;20021;-41
2021/12/02 06:42:02;;;;;;;16.02;5.47;;;;;;;;;;5054648;28;20025;-41
2021/12/02 06:44:28;;;;;;;14.60;5.90;;;;;;;;;;5054885;28;20021;-41
2021/12/02 06:46:54;;;;;;;19.95;7.78;;;;;;;;;;5054919;28;20017;-41
2021/12/02 06:49:19;;;;;;;31.17;11.50;;;;;;;;;;5054807;28;20017;-41
2021/12/02 06:51:45;;;;;;;33.97;11.73;;;;;;;;;;5054359;28;20046;-41
2021/12/02 06:54:10;;;;;;;35.15;12.32;;;;;;;;;;5054654;28;20029;-41
2021/12/02 06:56:35;;;;;;;20.27;7.53;;;;;;;;;;5043823;28;20053;-41
2021/12/02 06:59:01;;;;;;;14.93;6.13;;;;;;;;;;5039922;28;20025;-41
2021/12/02 07:01:26;;;;;;;14.60;7.47;;;;;;;;;;5040694;28;20021;-41
2021/12/02 07:03:51;;;;;;;8.75;5.20;;;;;;;;;;5049551;28;20465;-41
2021/12/02 07:06:16;;;;;;;9.50;5.40;;;;;;;;;;5049317;28;20017;-42
2021/12/02 07:08:42;;;;;;;12.70;5.22;;;;;;;;;;5045372;28;20490;-40
2021/12/02 07:11:09;;;;;;;12.15;6.70;;;;;;;;;;5034259;28;20029;-40
2021/12/02 07:13:35;;;;;;;12.48;6.43;;;;;;;;;;5035448;28;20017;-44
2021/12/02 07:16:01;;;;;;;9.68;5.80;;;;;;;;;;5040737;28;20064;-41
2021/12/02 07:18:27;;;;;;;14.95;5.85;;;;;;;;;;5039967;28;20499;-44
2021/12/02 07:20:52;;;;;;;13.60;5.45;;;;;;;;;;5054024;28;20427;-40
2021/12/02 07:23:19;;;;;;;12.02;5.45;;;;;;;;;;5053594;28;20021;-41
2021/12/02 07:25:45;;;;;;;11.20;4.95;;;;;;;;;;5046675;28;20078;-41
2021/12/02 07:28:11;;;;;;;11.57;5.60;;;;;;;;;;5052341;28;20017;-44
2021/12/02 07:30:36;;;;;;;14.10;5.97;;;;;;;;;;5052574;28;20395;-44
2021/12/02 07:33:02;;;;;;;15.23;5.32;;;;;;;;;;5046967;28;20013;-42
2021/12/02 07:35:28;;;;;;;12.88;5.22;;;;;;;;;;5045861;28;20040;-41
2021/12/02 07:37:54;;;;;;;13.00;5.32;;;;;;;;;;5032430;28;20030;-41
2021/12/02 07:40:20;;;;;;;13.52;5.55;;;;;;;;;;5033586;28;20032;-41
2021/12/02 07:42:46;;;;;;;8.60;5.30;;;;;;;;;;5031975;28;20014;-41
2021/12/02 07:45:12;;;;;;;9.27;5.78;;;;;;;;;;5040026;28;20029;-42
2021/12/02 07:47:38;;;;;;;11.15;5.03;;;;;;;;;;5033384;28;20475;-42
2021/12/02 07:50:04;;;;;;;15.18;5.30;;;;;;;;;;5037620;28;20156;-41
2021/12/02 07:52:31;;;;;;;11.98;4.88;;;;;;;;;;5033140;28;20025;-42
2021/12/02 07:54:59;;;;;;;8.57;5.07;;;;;;;;;;5041464;28;20691;-41
2021/12/02 07:57:24;;;;;;;14.10;5.90;;;;;;;;;;5034115;28;20470;-41
2021/12/02 07:59:51;;;;;;;9.98;5.10;;;;;;;;;;5032991;28;20101;-40
2021/12/02 08:02:16;;;;;;;11.80;5.18;;;;;;;;;;5037099;28;20022;-41
2021/12/02 08:04:42;;;;;;;8.98;5.25;;;;;;;;;;5051897;28;20358;-40
2021/12/02 08:07:07;;;;;;;10.93;5.20;;;;;;;;;;5036377;28;20684;-40
2021/12/02 08:09:33;;;;;;;10.93;5.13;;;;;;;;;;5045065;28;20456;-40
2021/12/02 08:11:59;;;;;;;8.95;5.88;;;;;;;;;;5051608;28;20532;-41
2021/12/02 08:14:25;;;;;;;10.52;6.20;;;;;;;;;;5036388;28;20025;-42
2021/12/02 08:16:50;;;;;;;7.50;5.53;;;;;;;;;;5030283;28;20124;-41
2021/12/02 08:19:16;;;;;;;16.08;6.18;;;;;;;;;;5031288;28;20049;-43
2021/12/02 08:21:41;;;;;;;14.90;6.50;;;;;;;;;;5030070;28;20029;-42
2021/12/02 08:24:07;;;;;;;13.55;6.78;;;;;;;;;;5030846;28;20035;-41
2021/12/02 08:26:33;;;;;;;15.32;7.60;;;;;;;;;;5029636;28;20021;-42
2021/12/02 08:28:58;;;;;;;16.08;8.00;;;;;;;;;;5038139;28;20025;-41
2021/12/02 08:31:23;;;;;;;15.68;7.50;;;;;;;;;;5040438;28;20035;-40
2021/12/02 08:33:51;;;;;;;14.13;7.68;;;;;;;;;;5043488;28;20319;-40
2021/12/02 08:36:19;;;;;;;14.82;7.63;;;;;;;;;;5052255;28;20380;-41
2021/12/02 08:38:47;;;;;;;16.55;8.05;;;;;;;;;;5052352;28;20028;-40
2021/12/02 08:41:13;;;;;;;16.85;8.35;;;;;;;;;;5052495;28;20487;-40
2021/12/02 08:43:38;;;;;;;24.13;11.45;;;;;;;;;;5042914;28;20045;-42
2021/12/02 08:46:04;;;;;;;23.27;10.80;;;;;;;;;;5041743;28;20032;-40
2021/12/02 08:48:29;;;;;;;26.30;10.32;;;;;;;;;;5036818;28;20020;-40
2021/12/02 08:50:55;;;;;;;17.88;9.73;;;;;;;;;;5032359;28;20026;-40
2021/12/02 08:53:20;;;;;;;19.23;10.75;;;;;;;;;;5032303;28;20079;-40
2021/12/02 08:55:46;;;;;;;16.65;8.90;;;;;;;;;;5032527;28;20079;-39
2021/12/02 08:58:11;;;;;;;21.17;10.15;;;;;;;;;;5035491;28;20427;-40
2021/12/02 09:00:39;;;;;;;22.17;10.85;;;;;;;;;;5032100;28;20491;-40
2021/12/02 09:03:06;;;;;;;17.25;9.57;;;;;;;;;;5047784;28;20444;-40
2021/12/02 09:05:32;;;;;;;18.20;8.52;;;;;;;;;;5036282;28;20021;-40
2021/12/02 09:07:57;;;;;;;17.95;8.65;;;;;;;;;;5045873;28;20021;-40
2021/12/02 09:10:23;;;;;;;19.35;8.25;;;;;;;;;;5031827;28;20457;-40
2021/12/02 09:12:49;;;;;;;23.92;12.73;;;;;;;;;;5035183;28;20014;-40
2021/12/02 09:15:15;;;;;;;15.38;8.00;;;;;;;;;;5033049;28;20522;-40
2021/12/02 09:17:40;;;;;;;23.90;11.50;;;;;;;;;;5032409;28;20522;-38
2021/12/02 09:20:07;;;;;;;19.27;10.18;;;;;;;;;;5037466;28;20100;-39
2021/12/02 09:22:32;;;;;;;19.00;9.85;;;;;;;;;;5034513;28;20028;-41
2021/12/02 09:24:58;;;;;;;16.02;8.70;;;;;;;;;;5039292;28;20105;-40
2021/12/02 09:27:23;;;;;;;17.15;8.88;;;;;;;;;;5031854;28;20025;-39
2021/12/02 09:29:49;;;;;;;17.20;9.23;;;;;;;;;;5032112;28;20029;-40
2021/12/02 09:32:14;;;;;;;15.38;9.27;;;;;;;;;;5031999;28;20452;-40
2021/12/02 09:34:39;;;;;;;15.57;9.45;;;;;;;;;;5044551;28;20027;-40
2021/12/02 09:37:05;;;;;;;22.02;13.05;;;;;;;;;;5041349;28;20482;-39
2021/12/02 09:39:32;;;;;;;19.38;9.48;;;;;;;;;;5054694;28;20032;-40
2021/12/02 09:41:58;;;;;;;20.20;11.32;;;;;;;;;;5055810;28;20448;-41
2021/12/02 09:44:23;;;;;;;17.00;10.30;;;;;;;;;;5055572;28;20020;-40
2021/12/02 09:46:49;;;;;;;18.10;11.18;;;;;;;;;;5055401;28;20491;-40
2021/12/02 09:49:15;;;;;;;20.05;12.45;;;;;;;;;;5055639;28;20021;-39
2021/12/02 09:54:15;;;;;;;15.52;8.93;;;;;;;;;;5035497;28;20025;-39
2021/12/02 09:56:42;;;;;;;21.92;10.02;;;;;;;;;;5053585;28;20052;-39
2021/12/02 09:59:10;;;;;;;18.88;10.00;;;;;;;;;;5055027;28;20021;-39
2021/12/02 10:01:40;;;;;;;21.02;11.18;;;;;;;;;;5055277;28;20059;-39
2021/12/02 10:04:06;;;;;;;;;;;;;;;;;;5041552;28;20108;-39
2021/12/02 10:06:32;;;;;;;13.95;8.18;;;;;;;;;;5034338;28;20000;-40
2021/12/02 10:09:37;;;;;;;15.75;9.40;;;;;;;;;;5036783;28;20021;-39
2021/12/02 10:14:45;;;;;;;13.35;8.45;;;;;;;;;;5036687;28;20052;-40
2021/12/02 10:20:13;;;;;;;16.27;10.10;;;;;;;;;;5039964;28;20359;-39
2021/12/02 10:22:39;;;;;;;16.08;10.13;;;;;;;;;;5039534;28;20048;-39
2021/12/02 10:25:05;;;;;;;16.38;9.80;;;;;;;;;;5033424;28;20626;-40
2021/12/02 10:27:30;;;;;;;20.02;12.32;;;;;;;;;;5034745;28;20029;-40
2021/12/02 10:29:55;;;;;;;24.10;13.27;;;;;;;;;;5034736;28;20510;-39
2021/12/02 10:32:25;;;;;;;18.60;9.68;;;;;;;;;;5034358;28;20030;-41
2021/12/02 10:35:01;;;;;;;22.25;10.20;;;;;;;;;;5043635;28;20021;-40
2021/12/02 10:37:33;;;;;;;16.40;8.52;;;;;;;;;;5037462;28;20041;-40
2021/12/02 10:40:05;;;;;;;15.23;9.40;;;;;;;;;;5035451;28;20025;-39
2021/12/02 10:42:31;;;;;;;9.88;7.13;;;;;;;;;;5032610;28;20029;-40
2021/12/02 10:45:01;;;;;;;15.07;7.65;;;;;;;;;;5031904;28;20029;-41
2021/12/02 10:47:26;;;;;;;14.85;7.70;;;;;;;;;;5042924;28;20022;-40
2021/12/02 10:49:53;;;;;;;18.05;8.00;;;;;;;;;;5032754;28;20026;-39
2021/12/02 10:52:24;;;;;;;16.02;6.90;;;;;;;;;;5034706;28;20322;-40
2021/12/02 10:54:51;;;;;;;11.57;7.18;;;;;;;;;;5043096;28;20022;-40
2021/12/02 10:57:19;;;;;;;13.02;7.10;;;;;;;;;;5034240;28;20079;-41
2021/12/02 10:59:47;;;;;;;15.57;8.57;;;;;;;;;;5039213;28;20460;-40
2021/12/02 11:02:18;;;;;;;8.93;4.65;;;;;;;;;;5054731;28;20515;-40
2021/12/02 11:04:45;;;;;;;6.38;3.65;;;;;;;;;;5034254;28;20075;-39
2021/12/02 11:07:13;;;;;;;8.70;3.10;;;;;;;;;;5034210;28;20024;-40
2021/12/02 11:09:39;;;;;;;6.50;3.70;;;;;;;;;;5032617;28;20032;-40
2021/12/02 11:12:12;;;;;;;7.65;3.70;;;;;;;;;;5040978;28;20029;-40
2021/12/02 11:15:01;;;;;;;8.55;4.05;;;;;;;;;;5052753;28;20028;-40
2021/12/02 11:17:30;;;;;;;6.97;4.80;;;;;;;;;;5035233;28;20052;-40
2021/12/02 11:19:55;;;;;;;7.07;4.20;;;;;;;;;;5052702;28;20021;-40
2021/12/02 11:22:21;;;;;;;7.70;4.55;;;;;;;;;;5041405;28;20079;-40
2021/12/02 11:24:48;;;;;;;6.80;4.25;;;;;;;;;;5037168;28;20057;-40
2021/12/02 11:27:16;;;;;;;8.38;4.43;;;;;;;;;;5033654;28;20029;-40
2021/12/02 11:30:05;;;;;;;6.43;4.40;;;;;;;;;;5040749;28;20486;-40
2021/12/02 11:32:36;;;;;;;7.82;5.03;;;;;;;;;;5032875;28;20037;-40
2021/12/02 11:35:01;;;;;;;8.07;4.50;;;;;;;;;;5038621;28;20025;-43
2021/12/02 11:37:27;;;;;;;6.95;4.25;;;;;;;;;;5031694;28;20029;-41
2021/12/02 11:39:57;;;;;;;6.18;3.72;;;;;;;;;;5037474;28;20085;-41
2021/12/02 11:42:23;;;;;;;8.48;4.50;;;;;;;;;;5033212;28;20407;-40
2021/12/02 11:44:48;;;;;;;11.50;4.90;;;;;;;;;;5031982;28;20079;-41
2021/12/02 11:47:14;;;;;;;8.40;4.20;;;;;;;;;;5032870;28;20516;-41
2021/12/02 11:49:40;;;;;;;10.10;4.00;;;;;;;;;;5034245;28;20017;-40
2021/12/02 11:52:07;;;;;;;7.75;4.70;;;;;;;;;;5032388;28;20021;-41
2021/12/02 11:54:32;;;;;;;10.60;4.55;;;;;;;;;;5031810;28;20049;-41
2021/12/02 11:56:57;;;;;;;7.40;4.25;;;;;;;;;;5031531;28;20116;-40
2021/12/02 11:59:23;;;;;;;8.82;4.28;;;;;;;;;;5035043;28;20377;-40
2021/12/02 12:01:53;;;;;;;15.77;6.85;;;;;;;;;;5050360;28;20028;-40
2021/12/02 12:04:18;;;;;;;19.00;7.43;;;;;;;;;;5052922;28;20150;-40
2021/12/02 12:06:45;;;;;;;8.93;4.85;;;;;;;;;;5049101;28;20100;-40
2021/12/02 12:09:11;;;;;;;9.93;5.15;;;;;;;;;;5033132;28;20476;-40
2021/12/02 12:11:38;;;;;;;9.40;5.15;;;;;;;;;;5031352;28;20065;-42
2021/12/02 12:14:03;;;;;;;10.68;5.57;;;;;;;;;;5032933;28;20017;-44
2021/12/02 12:16:42;;;;;;;14.30;6.50;;;;;;;;;;5045244;28;20388;-40
2021/12/02 12:19:31;;;;;;;13.00;6.90;;;;;;;;;;5038238;28;20043;-40
2021/12/02 12:21:56;;;;;;;13.05;7.38;;;;;;;;;;5034310;28;20025;-41
2021/12/02 12:24:41;;;;;;;11.55;7.30;;;;;;;;;;5052681;28;20460;-41
2021/12/02 12:27:16;;;;;;;17.42;6.97;;;;;;;;;;5031666;28;20495;-41
2021/12/02 12:29:42;;;;;;;10.15;5.25;;;;;;;;;;5045252;28;20028;-40
2021/12/02 12:32:13;;;;;;;9.70;5.53;;;;;;;;;;5052713;28;20111;-41
2021/12/02 12:34:49;;;;;;;9.93;5.72;;;;;;;;;;5046168;28;20422;-47
2021/12/02 12:37:30;;;;;;;9.10;5.90;;;;;;;;;;5051830;28;20085;-41
2021/12/02 12:40:07;;;;;;;8.32;5.18;;;;;;;;;;5052073;28;20032;-40
2021/12/02 12:42:34;;;;;;;10.02;4.93;;;;;;;;;;5053037;28;20033;-41
2021/12/02 12:45:00;;;;;;;8.40;4.93;;;;;;;;;;5052140;28;20400;-41
2021/12/02 12:47:43;;;;;;;9.90;5.18;;;;;;;;;;5048013;28;20037;-40
2021/12/02 12:50:24;;;;;;;9.48;4.63;;;;;;;;;;5036733;28;20024;-41
2021/12/02 12:52:54;;;;;;;7.95;4.25;;;;;;;;;;5052331;28;20515;-40
2021/12/02 12:55:20;;;;;;;6.88;4.50;;;;;;;;;;5051892;28;20071;-40
2021/12/02 12:58:04;;;;;;;11.38;5.15;;;;;;;;;;5050539;28;20059;-41
2021/12/02 13:00:35;;;;;;;10.95;4.95;;;;;;;;;;5052120;28;20032;-40
2021/12/02 13:03:04;;;;;;;10.07;5.38;;;;;;;;;;5055845;28;20024;-44
2021/12/02 13:06:00;;;;;;;10.10;5.78;;;;;;;;;;5032323;28;20025;-42
2021/12/02 13:08:29;;;;;;;12.02;6.30;;;;;;;;;;5034229;28;20038;-40
2021/12/02 13:10:56;;;;;;;11.52;6.60;;;;;;;;;;5031866;28;20028;-41
2021/12/02 13:13:22;;;;;;;11.55;7.00;;;;;;;;;;5031714;28;20061;-40
2021/12/02 13:15:47;;;;;;;12.93;7.50;;;;;;;;;;5031809;28;20053;-41
2021/12/02 13:18:28;;;;;;;12.88;7.65;;;;;;;;;;5039586;28;20040;-41
2021/12/02 13:20:54;;;;;;;16.35;8.15;;;;;;;;;;5043408;28;20060;-40
2021/12/02 13:23:20;;;;;;;12.80;8.32;;;;;;;;;;5050690;28;20333;-40
2021/12/02 13:25:51;;;;;;;17.50;9.50;;;;;;;;;;5036891;28;20495;-42
2021/12/02 13:28:35;;;;;;;15.63;8.52;;;;;;;;;;5037337;28;20021;-40
2021/12/02 13:31:03;;;;;;;17.10;9.07;;;;;;;;;;5051822;28;20100;-40
2021/12/02 13:33:36;;;;;;;17.63;9.95;;;;;;;;;;5042127;28;20485;-40
2021/12/02 13:36:02;;;;;;;15.38;9.30;;;;;;;;;;5031554;28;20029;-41
2021/12/02 13:38:27;;;;;;;18.00;9.30;;;;;;;;;;5030784;28;20057;-42
2021/12/02 13:40:52;;;;;;;22.40;9.25;;;;;;;;;;5031070;28;20025;-41
2021/12/02 13:43:18;;;;;;;17.98;8.95;;;;;;;;;;5031374;28;20108;-40
2021/12/02 13:45:44;;;;;;;21.10;9.70;;;;;;;;;;5032799;28;20013;-41
2021/12/02 13:48:16;;;;;;;24.55;10.40;;;;;;;;;;5031192;28;20026;-40
2021/12/02 13:50:44;;;;;;;34.38;12.70;;;;;;;;;;5031100;28;20384;-42
2021/12/02 13:53:09;;;;;;;25.70;13.18;;;;;;;;;;5030933;28;20025;-40
2021/12/02 13:55:38;;;;;;;35.67;13.23;;;;;;;;;;5030987;28;20416;-45
2021/12/02 13:58:08;;;;;;;20.13;11.20;;;;;;;;;;5036529;28;20049;-41
2021/12/02 14:00:35;;;;;;;17.60;10.38;;;;;;;;;;5037314;28;20075;-41
2021/12/02 14:03:02;;;;;;;14.65;9.57;;;;;;;;;;5033469;28;20071;-41
2021/12/02 14:05:28;;;;;;;17.00;8.40;;;;;;;;;;5030028;28;20025;-42
2021/12/02 14:07:55;;;;;;;16.60;7.95;;;;;;;;;;5032522;28;20018;-42
2021/12/02 14:10:22;;;;;;;12.07;7.65;;;;;;;;;;5040931;28;20053;-41
2021/12/02 14:12:51;;;;;;;13.30;8.18;;;;;;;;;;5038969;28;20060;-41
2021/12/02 14:15:30;;;;;;;14.00;7.15;;;;;;;;;;5042130;28;20047;-44
2021/12/02 14:17:57;;;;;;;12.82;7.65;;;;;;;;;;5042241;28;20084;-42
2021/12/02 14:20:35;;;;;;;13.38;8.27;;;;;;;;;;5042721;28;20021;-42
2021/12/02 14:23:01;;;;;;;16.00;8.18;;;;;;;;;;5045817;28;20021;-42
2021/12/02 14:25:29;;;;;;;12.52;7.93;;;;;;;;;;5042357;28;20009;-41
2021/12/02 14:28:13;;;;;;;17.63;9.20;;;;;;;;;;5034838;28;20048;-41
2021/12/02 14:30:42;;;;;;;14.35;9.07;;;;;;;;;;5034698;28;20025;-41
2021/12/02 14:33:08;;;;;;;16.35;9.25;;;;;;;;;;5038079;28;20021;-41
2021/12/02 14:36:00;;;;;;;17.95;10.88;;;;;;;;;;5054165;28;20023;-42
2021/12/02 14:38:31;;;;;;;16.98;10.27;;;;;;;;;;5053446;28;20081;-43
2021/12/02 14:41:00;;;;;;;21.52;11.52;;;;;;;;;;5054711;28;20091;-42
2021/12/02 14:43:25;;;;;;;;;;;;;;;;;;5054953;28;20039;-42
2021/12/02 14:46:08;;;;;;;19.90;10.50;;;;;;;;;;5040258;28;20355;-41
2021/12/02 14:48:34;;;;;;;18.42;11.48;;;;;;;;;;5048695;28;20052;-41
2021/12/02 14:51:04;;;;;;;24.10;12.05;;;;;;;;;;5054708;28;20460;-44
2021/12/02 14:53:32;;;;;;;17.73;11.23;;;;;;;;;;5054192;28;20064;-44
2021/12/02 14:55:59;;;;;;;26.65;12.13;;;;;;;;;;5053609;28;20009;-42
2021/12/02 14:58:26;;;;;;;22.25;10.07;;;;;;;;;;5044201;28;20040;-41
2021/12/02 15:01:12;;;;;;;23.55;12.50;;;;;;;;;;5045803;28;20101;-41
2021/12/02 15:03:37;;;;;;;23.70;13.23;;;;;;;;;;5054113;28;20082;-42
2021/12/02 15:06:02;;;;;;;22.80;13.48;;;;;;;;;;5033590;28;20025;-45
2021/12/02 15:08:31;;;;;;;20.02;13.63;;;;;;;;;;5036299;28;20463;-41
2021/12/02 15:10:57;;;;;;;21.42;13.32;;;;;;;;;;5034757;28;20064;-43